Time;durP1;ratioP1;P1;durP2;ratioP2;P2;SDS_P1;SDS_P2;PMS_P1;PMS_P2;Temp;Humidity;BMP_temperature;BMP_pressure;BME280_temperature;BME280_humidity;BME280_pressure;Samples;Min_cycle;Max_cycle;Signal;HPM_P1;HPM_P2
2021/06/21 00:00:55;;;;;;;7.13;5.47;;;487.10;2380.80;;;;;;5074841;28;20024;-73
2021/06/21 00:03:21;;;;;;;8.23;5.30;;;487.10;2380.80;;;;;;5059040;28;20017;-75
2021/06/21 00:05:48;;;;;;;8.82;6.20;;;487.10;2380.80;;;;;;5058541;28;20024;-73
2021/06/21 00:08:14;;;;;;;7.35;5.32;;;487.00;2380.80;;;;;;5063203;28;20042;-75
2021/06/21 00:10:40;;;;;;;7.53;5.72;;;487.00;2380.80;;;;;;5068036;28;20045;-77
2021/06/21 00:13:06;;;;;;;8.02;5.93;;;487.00;2380.80;;;;;;5068143;28;20027;-80
2021/06/21 00:15:31;;;;;;;8.55;5.80;;;486.90;2380.80;;;;;;5075014;28;20501;-72
2021/06/21 00:17:57;;;;;;;8.73;6.20;;;486.80;2380.80;;;;;;5075303;28;20024;-72
2021/06/21 00:20:24;;;;;;;8.55;6.30;;;486.80;2380.80;;;;;;5060699;28;20439;-73
2021/06/21 00:22:52;;;;;;;7.32;6.07;;;486.80;2380.80;;;;;;5075027;28;20505;-73
2021/06/21 00:25:18;;;;;;;7.70;5.85;;;486.70;2380.80;;;;;;5074422;28;20021;-73
2021/06/21 00:27:45;;;;;;;7.25;5.70;;;486.60;2380.80;;;;;;5074854;28;20024;-76
2021/06/21 00:30:13;;;;;;;7.95;5.80;;;486.60;2380.80;;;;;;5074857;28;20017;-77
2021/06/21 00:32:40;;;;;;;8.15;5.85;;;486.50;2380.80;;;;;;5074918;28;20024;-75
2021/06/21 00:35:07;;;;;;;7.40;6.05;;;486.40;2380.80;;;;;;5074702;28;20082;-75
2021/06/21 00:37:33;;;;;;;7.13;5.70;;;486.40;2380.80;;;;;;5060110;28;20021;-76
2021/06/21 00:39:59;;;;;;;10.60;6.80;;;461.70;2380.80;;;;;;5074697;28;20028;-71
2021/06/21 00:42:25;;;;;;;8.82;6.32;;;461.50;2380.80;;;;;;5074672;28;20043;-72
2021/06/21 00:44:51;;;;;;;9.48;6.20;;;461.50;2380.80;;;;;;5074664;28;20430;-74
2021/06/21 00:47:18;;;;;;;6.97;5.88;;;461.50;2380.80;;;;;;5074543;28;20024;-74
2021/06/21 00:49:44;;;;;;;7.35;5.85;;;461.50;2380.80;;;;;;5074412;28;20029;-73
2021/06/21 00:52:15;;;;;;;7.43;5.72;;;461.50;2380.80;;;;;;5074523;28;20538;-73
2021/06/21 00:54:42;;;;;;;7.72;5.95;;;461.60;2380.80;;;;;;5074626;28;20024;-72
2021/06/21 00:57:08;;;;;;;7.60;5.93;;;461.60;2380.80;;;;;;5074297;28;20050;-72
2021/06/21 00:59:34;;;;;;;8.00;6.07;;;461.50;2380.80;;;;;;5074215;28;20016;-73
2021/06/21 01:02:00;;;;;;;8.52;5.90;;;461.50;2380.80;;;;;;5074536;28;20506;-76
2021/06/21 01:04:25;;;;;;;7.38;5.95;;;461.50;2380.80;;;;;;5074111;28;20075;-71
2021/06/21 01:06:51;;;;;;;7.60;6.07;;;461.40;2380.80;;;;;;5074028;28;20525;-73
2021/06/21 01:09:17;;;;;;;7.72;6.07;;;461.20;2380.80;;;;;;5074065;28;20024;-75
2021/06/21 01:11:52;;;;;;;9.57;5.88;;;461.20;2380.80;;;;;;5059571;28;20046;-75
2021/06/21 01:14:28;;;;;;;7.40;5.90;;;461.30;2380.80;;;;;;5074245;28;20375;-76
2021/06/21 01:17:15;;;;;;;8.43;6.00;;;461.40;2380.80;;;;;;5073810;28;20095;-75
2021/06/21 01:19:56;;;;;;;7.43;6.10;;;461.50;2380.80;;;;;;5073891;28;20028;-75
2021/06/21 01:22:43;;;;;;;7.90;6.20;;;461.40;2380.80;;;;;;5074162;28;20025;-71
2021/06/21 01:25:20;;;;;;;8.48;6.13;;;461.40;2380.80;;;;;;5073503;28;20031;-71
2021/06/21 01:27:53;;;;;;;8.25;6.35;;;461.30;2380.80;;;;;;5073717;28;20028;-72
2021/06/21 01:30:26;;;;;;;6.88;5.90;;;461.20;2380.80;;;;;;5073556;28;20032;-73
2021/06/21 01:32:59;;;;;;;8.50;6.10;;;461.20;2380.80;;;;;;5073918;28;20410;-72
2021/06/21 01:35:38;;;;;;;7.15;5.90;;;461.20;2380.80;;;;;;5073800;28;20032;-73
2021/06/21 01:38:12;;;;;;;7.22;6.00;;;461.20;2380.80;;;;;;5073467;28;20025;-73
2021/06/21 01:40:45;;;;;;;8.70;6.63;;;461.30;2380.80;;;;;;5073346;28;20497;-73
2021/06/21 01:43:14;;;;;;;8.10;6.43;;;461.20;2380.80;;;;;;5073356;28;20039;-77
2021/06/21 01:45:42;;;;;;;8.68;5.93;;;461.10;2380.80;;;;;;5073525;28;20032;-74
2021/06/21 01:48:09;;;;;;;8.65;6.03;;;461.20;2380.80;;;;;;5073208;28;20103;-73
2021/06/21 01:50:35;;;;;;;9.30;6.13;;;461.20;2380.80;;;;;;5072673;28;20029;-73
2021/06/21 01:53:18;;;;;;;9.38;6.68;;;461.20;2380.80;;;;;;5073331;28;20029;-71
2021/06/21 01:56:04;;;;;;;10.45;6.90;;;460.90;2380.80;;;;;;5072914;28;20031;-72
2021/06/21 01:58:34;;;;;;;9.43;6.72;;;436.10;2355.20;;;;;;5072657;28;20056;-72
2021/06/21 02:01:06;;;;;;;9.75;6.82;;;436.00;2355.20;;;;;;5072805;28;20410;-72
2021/06/21 02:03:34;;;;;;;8.82;6.95;;;435.90;2355.20;;;;;;5073152;28;20086;-71
2021/06/21 02:06:02;;;;;;;8.95;7.20;;;435.90;2355.20;;;;;;5072776;28;20060;-72
2021/06/21 02:08:29;;;;;;;10.32;7.38;;;436.00;2355.20;;;;;;5072834;28;20482;-73
2021/06/21 02:10:55;;;;;;;8.82;6.90;;;436.10;2355.20;;;;;;5061569;28;20084;-73
2021/06/21 02:13:23;;;;;;;9.98;7.53;;;436.10;2355.20;;;;;;5070013;28;20028;-72
2021/06/21 02:15:53;;;;;;;9.82;7.03;;;436.10;2355.20;;;;;;5072762;28;20029;-72
2021/06/21 02:18:20;;;;;;;11.43;7.30;;;436.10;2355.20;;;;;;5072732;28;20030;-72
2021/06/21 02:20:50;;;;;;;8.10;6.43;;;460.80;2380.80;;;;;;5072698;28;20031;-72
2021/06/21 02:23:16;;;;;;;;;;;460.80;2380.80;;;;;;5073012;28;20028;-72
2021/06/21 02:25:43;;;;;;;11.15;7.75;;;436.10;2355.20;;;;;;5054620;28;20283;-73
2021/06/21 02:28:11;;;;;;;10.20;7.10;;;436.00;2355.20;;;;;;5072722;28;20051;-72
2021/06/21 02:30:38;;;;;;;9.50;6.80;;;435.90;2355.20;;;;;;5072484;28;20501;-72
2021/06/21 02:33:04;;;;;;;9.27;6.70;;;436.00;2355.20;;;;;;5072694;28;20471;-73
2021/06/21 02:35:30;;;;;;;9.38;7.10;;;436.00;2355.20;;;;;;5072335;28;20024;-72
2021/06/21 02:37:56;;;;;;;27.80;18.98;;;436.10;2355.20;;;;;;5072569;28;20107;-73
2021/06/21 02:40:22;;;;;;;26.00;20.13;;;460.80;2380.80;;;;;;5072611;28;20037;-73
2021/06/21 02:42:48;;;;;;;19.17;14.25;;;460.80;2380.80;;;;;;5072424;28;20024;-72
2021/06/21 02:45:13;;;;;;;11.48;8.23;;;436.00;2355.20;;;;;;5054401;28;20391;-72
2021/06/21 02:47:42;;;;;;;9.40;7.60;;;435.90;2355.20;;;;;;5072269;28;20023;-75
2021/06/21 02:50:08;;;;;;;10.80;8.07;;;435.80;2355.20;;;;;;5072411;28;20495;-72
2021/06/21 02:52:37;;;;;;;13.93;9.73;;;435.90;2355.20;;;;;;5072244;28;20043;-72
2021/06/21 02:55:15;;;;;;;11.88;8.45;;;435.80;2355.20;;;;;;5072376;28;20025;-72
2021/06/21 02:57:53;;;;;;;9.27;7.60;;;435.70;2355.20;;;;;;5072146;28;20505;-72
2021/06/21 03:00:19;;;;;;;9.43;7.57;;;435.60;2355.20;;;;;;5072930;28;20032;-73
2021/06/21 03:02:46;;;;;;;9.90;7.65;;;435.60;2355.20;;;;;;5076329;28;20019;-73
2021/06/21 03:05:15;;;;;;;9.77;8.27;;;435.80;2355.20;;;;;;5076262;28;20096;-73
2021/06/21 03:07:41;;;;;;;9.88;7.78;;;435.90;2355.20;;;;;;5076275;28;20027;-72
2021/06/21 03:10:08;;;;;;;11.35;8.15;;;436.00;2355.20;;;;;;5071445;28;20037;-71
2021/06/21 03:12:35;;;;;;;14.07;11.50;;;436.00;2355.20;;;;;;5067082;28;20082;-72
2021/06/21 03:15:00;;;;;;;12.43;8.70;;;436.00;2355.20;;;;;;5076098;28;20107;-72
2021/06/21 03:17:27;;;;;;;11.30;8.90;;;436.00;2355.20;;;;;;5076444;28;20020;-73
2021/06/21 03:19:53;;;;;;;13.32;8.60;;;436.00;2355.20;;;;;;5072570;28;20020;-73
2021/06/21 03:22:23;;;;;;;9.63;7.63;;;436.10;2355.20;;;;;;5076169;28;20020;-73
2021/06/21 03:24:56;;;;;;;10.55;7.55;;;460.80;2380.80;;;;;;5076139;28;20386;-72
2021/06/21 03:27:32;;;;;;;9.77;7.72;;;461.00;2380.80;;;;;;5065382;28;20520;-73
2021/06/21 03:29:58;;;;;;;13.30;8.18;;;461.10;2380.80;;;;;;5075882;28;20028;-73
2021/06/21 03:32:26;;;;;;;11.30;8.93;;;461.20;2380.80;;;;;;5064900;28;20020;-73
2021/06/21 03:34:52;;;;;;;12.43;9.52;;;461.30;2380.80;;;;;;5075740;28;20020;-72
2021/06/21 03:37:18;;;;;;;15.00;9.07;;;461.40;2380.80;;;;;;5075617;28;20462;-73
2021/06/21 03:39:44;;;;;;;11.23;8.15;;;461.50;2380.80;;;;;;5075824;28;20063;-73
2021/06/21 03:42:10;;;;;;;11.35;7.93;;;461.60;2380.80;;;;;;5075341;28;20056;-72
2021/06/21 03:44:36;;;;;;;10.55;7.25;;;461.70;2380.80;;;;;;5075630;28;20394;-73
2021/06/21 03:47:01;;;;;;;11.25;7.10;;;461.70;2380.80;;;;;;5075247;28;20020;-72
2021/06/21 03:49:27;;;;;;;9.73;6.60;;;486.40;2380.80;;;;;;5069167;28;20037;-73
2021/06/21 03:51:53;;;;;;;8.43;6.30;;;486.50;2380.80;;;;;;5067912;28;20086;-77
2021/06/21 03:54:19;;;;;;;9.25;6.70;;;486.50;2380.80;;;;;;5075356;28;20020;-76
2021/06/21 03:56:45;;;;;;;9.57;6.90;;;486.60;2380.80;;;;;;5075329;28;20028;-73
2021/06/21 03:59:10;;;;;;;9.10;6.75;;;486.50;2380.80;;;;;;5075210;28;20024;-73
2021/06/21 04:01:36;;;;;;;10.40;6.88;;;486.70;2380.80;;;;;;5075415;28;20070;-72
2021/06/21 04:04:02;;;;;;;9.82;6.70;;;486.80;2380.80;;;;;;5074894;28;20068;-71
2021/06/21 04:06:27;;;;;;;9.13;6.55;;;487.00;2380.80;;;;;;5075266;28;20043;-76
2021/06/21 04:08:53;;;;;;;10.43;6.55;;;487.00;2380.80;;;;;;5069508;28;20391;-72
2021/06/21 04:11:19;;;;;;;8.73;6.57;;;487.10;2380.80;;;;;;5059491;28;20033;-72
2021/06/21 04:13:45;;;;;;;9.35;7.35;;;487.20;2380.80;;;;;;5060100;28;20513;-76
2021/06/21 04:16:10;;;;;;;10.48;7.35;;;487.30;2380.80;;;;;;5074781;28;20035;-75
2021/06/21 04:18:36;;;;;;;9.45;7.72;;;487.30;2380.80;;;;;;5069799;28;20544;-75
2021/06/21 04:21:02;;;;;;;10.20;7.85;;;487.30;2380.80;;;;;;5074730;28;20105;-72
2021/06/21 04:23:27;;;;;;;9.48;8.02;;;512.00;2380.80;;;;;;5074666;28;20720;-71
2021/06/21 04:25:53;;;;;;;11.52;8.50;;;487.30;2380.80;;;;;;5074774;28;20056;-74
2021/06/21 04:28:19;;;;;;;9.45;8.13;;;512.00;2380.80;;;;;;5072373;28;20032;-72
2021/06/21 04:30:47;;;;;;;10.27;8.00;;;512.10;2380.80;;;;;;5073651;28;20028;-74
2021/06/21 04:33:12;;;;;;;10.57;7.72;;;512.10;2380.80;;;;;;5074141;28;20479;-73
2021/06/21 04:35:38;;;;;;;11.57;8.18;;;512.10;2380.80;;;;;;5074055;28;20028;-73
2021/06/21 04:38:04;;;;;;;9.20;8.07;;;512.30;2380.80;;;;;;5073247;28;20032;-73
2021/06/21 04:40:34;;;;;;;11.07;8.07;;;512.40;2380.80;;;;;;5074205;28;20024;-73
2021/06/21 04:43:00;;;;;;;11.15;7.85;;;512.50;2380.80;;;;;;5074078;28;20078;-77
2021/06/21 04:45:26;;;;;;;8.98;7.47;;;512.50;2380.80;;;;;;5074001;28;20028;-79
2021/06/21 04:47:53;;;;;;;10.70;7.93;;;512.60;2380.80;;;;;;5064093;28;20112;-72
2021/06/21 04:50:19;;;;;;;10.48;7.90;;;512.70;2380.80;;;;;;5063843;28;20031;-73
2021/06/21 04:52:47;;;;;;;10.70;8.23;;;512.90;2380.80;;;;;;5074028;28;20504;-72
2021/06/21 04:55:14;;;;;;;9.68;7.20;;;537.70;2406.40;;;;;;5073482;28;20082;-74
2021/06/21 04:57:40;;;;;;;9.88;7.70;;;537.80;2406.40;;;;;;5074029;28;20383;-72
2021/06/21 05:00:12;;;;;;;9.48;7.60;;;538.00;2406.40;;;;;;5074280;28;20017;-73
2021/06/21 05:02:39;;;;;;;10.50;7.50;;;538.00;2406.40;;;;;;5074428;28;20029;-73
2021/06/21 05:05:06;;;;;;;9.38;7.35;;;538.10;2406.40;;;;;;5074303;28;20044;-73
2021/06/21 05:07:32;;;;;;;9.45;7.55;;;538.00;2406.40;;;;;;5074320;28;20372;-79
2021/06/21 05:09:59;;;;;;;10.45;7.32;;;538.20;2406.40;;;;;;5073231;28;20037;-84
2021/06/21 05:12:25;;;;;;;9.23;6.50;;;538.20;2406.40;;;;;;5073719;28;20091;-81
2021/06/21 05:14:51;;;;;;;8.35;6.70;;;538.30;2406.40;;;;;;5073521;28;20036;-79
2021/06/21 05:17:16;;;;;;;7.60;6.57;;;538.50;2406.40;;;;;;5071114;28;20027;-76
2021/06/21 05:19:43;;;;;;;8.02;6.45;;;563.20;2432.00;;;;;;5074117;28;20036;-74
2021/06/21 05:22:09;;;;;;;9.25;6.90;;;563.30;2432.00;;;;;;5074315;28;20025;-78
2021/06/21 05:24:35;;;;;;;9.48;7.00;;;563.30;2432.00;;;;;;5072616;28;20024;-77
2021/06/21 05:27:01;;;;;;;9.02;6.40;;;563.40;2432.00;;;;;;5073601;28;20479;-77
2021/06/21 05:29:27;;;;;;;10.23;6.25;;;563.60;2432.00;;;;;;5073528;28;20221;-79
2021/06/21 05:31:53;;;;;;;8.07;6.80;;;563.80;2432.00;;;;;;5073539;28;20021;-72
2021/06/21 05:34:19;;;;;;;8.73;6.50;;;563.80;2432.00;;;;;;5073034;28;20044;-71
2021/06/21 05:36:44;;;;;;;8.55;5.90;;;563.90;2432.00;;;;;;5073366;28;20036;-81
2021/06/21 05:39:10;;;;;;;8.48;6.70;;;564.00;2432.00;;;;;;5072936;28;20513;-81
2021/06/21 05:41:36;;;;;;;7.10;6.15;;;588.80;2432.00;;;;;;5073302;28;20028;-74
2021/06/21 05:44:02;;;;;;;8.38;5.90;;;564.00;2432.00;;;;;;5072880;28;20096;-80
2021/06/21 05:46:28;;;;;;;8.35;6.20;;;564.10;2432.00;;;;;;5072959;28;20095;-80
2021/06/21 05:48:54;;;;;;;7.85;6.15;;;588.80;2432.00;;;;;;5072853;28;20020;-71
2021/06/21 05:51:19;;;;;;;9.68;6.20;;;588.80;2432.00;;;;;;5073127;28;20390;-73
2021/06/21 05:53:45;;;;;;;7.65;6.07;;;588.90;2432.00;;;;;;5073276;28;20036;-72
2021/06/21 05:56:11;;;;;;;6.90;5.88;;;589.10;2432.00;;;;;;5060343;28;20032;-71
2021/06/21 05:58:36;;;;;;;6.68;5.97;;;589.30;2432.00;;;;;;5053400;28;20418;-72
2021/06/21 06:01:02;;;;;;;7.43;5.80;;;589.40;2432.00;;;;;;5053274;28;20027;-74
2021/06/21 06:03:29;;;;;;;9.35;5.95;;;589.40;2432.00;;;;;;5055668;28;20091;-74
2021/06/21 06:05:54;;;;;;;7.15;5.60;;;589.50;2432.00;;;;;;5055963;28;20033;-74
2021/06/21 06:08:20;;;;;;;7.68;6.15;;;589.70;2432.00;;;;;;5053125;28;20020;-71
2021/06/21 06:10:46;;;;;;;8.27;6.00;;;614.50;2432.00;;;;;;5052252;28;20049;-72
2021/06/21 06:13:11;;;;;;;7.60;5.93;;;614.60;2432.00;;;;;;5068388;28;20027;-76
2021/06/21 06:15:38;;;;;;;8.05;5.97;;;614.80;2432.00;;;;;;5067254;28;20090;-75
2021/06/21 06:18:04;;;;;;;8.45;5.75;;;614.80;2432.00;;;;;;5065241;28;20031;-71
2021/06/21 06:20:29;;;;;;;8.00;5.70;;;615.00;2432.00;;;;;;5053880;28;20029;-77
2021/06/21 06:22:55;;;;;;;7.38;5.85;;;615.00;2432.00;;;;;;5039814;28;20036;-75
2021/06/21 06:25:23;;;;;;;12.45;6.28;;;615.10;2432.00;;;;;;5063371;28;20031;-76
2021/06/21 06:27:49;;;;;;;8.35;5.68;;;615.30;2432.00;;;;;;5072680;28;20024;-75
2021/06/21 06:30:15;;;;;;;7.53;6.35;;;615.10;2432.00;;;;;;5072370;28;20028;-71
2021/06/21 06:32:41;;;;;;;7.70;6.10;;;615.20;2432.00;;;;;;5066333;28;20028;-75
2021/06/21 06:35:08;;;;;;;7.35;5.65;;;640.10;2432.00;;;;;;5065339;28;20032;-80
2021/06/21 06:37:35;;;;;;;7.45;5.93;;;640.20;2432.00;;;;;;5072463;28;20021;-72
2021/06/21 06:40:01;;;;;;;8.50;6.18;;;640.40;2432.00;;;;;;5054490;28;20062;-81
2021/06/21 06:42:27;;;;;;;7.15;5.78;;;640.50;2432.00;;;;;;5072443;28;20016;-72
2021/06/21 06:44:52;;;;;;;6.90;5.90;;;640.50;2432.00;;;;;;5072505;28;20032;-73
2021/06/21 06:47:18;;;;;;;6.40;5.70;;;640.70;2432.00;;;;;;5062404;28;20114;-81
2021/06/21 06:49:44;;;;;;;7.97;5.57;;;640.50;2432.00;;;;;;5072195;28;20017;-81
2021/06/21 06:52:12;;;;;;;7.28;5.85;;;640.80;2432.00;;;;;;5067006;28;20020;-75
2021/06/21 06:57:12;;;;;;;7.40;5.75;;;665.80;2432.00;;;;;;5072329;28;20028;-74
2021/06/21 06:59:39;;;;;;;7.45;5.55;;;665.90;2432.00;;;;;;5067766;28;20031;-78
2021/06/21 07:02:11;;;;;;;9.63;5.68;;;665.70;2432.00;;;;;;5058549;28;20037;-76
2021/06/21 07:04:38;;;;;;;7.72;5.78;;;665.90;2432.00;;;;;;5053900;28;20029;-73
2021/06/21 07:07:05;;;;;;;8.27;5.95;;;666.20;2432.00;;;;;;5052852;28;20096;-78
2021/06/21 07:09:32;;;;;;;8.00;5.43;;;666.20;2432.00;;;;;;5054874;28;20466;-77
2021/06/21 07:11:58;;;;;;;6.82;5.70;;;666.50;2432.00;;;;;;5050521;28;20063;-74
2021/06/21 07:14:25;;;;;;;9.18;5.60;;;666.20;2432.00;;;;;;5054059;28;20432;-75
2021/06/21 07:16:51;;;;;;;7.43;5.55;;;666.30;2432.00;;;;;;5052161;28;20025;-72
2021/06/21 07:19:18;;;;;;;9.50;5.35;;;666.50;2432.00;;;;;;5052014;28;20041;-78
2021/06/21 07:21:44;;;;;;;6.95;5.22;;;691.60;2432.00;;;;;;5054221;28;20021;-76
2021/06/21 07:24:11;;;;;;;6.40;5.10;;;691.40;2432.00;;;;;;5052348;28;20399;-79
2021/06/21 07:26:38;;;;;;;10.82;5.50;;;691.30;2432.00;;;;;;5066376;28;20126;-75
2021/06/21 07:29:04;;;;;;;8.98;4.97;;;691.50;2432.00;;;;;;5067220;28;20073;-74
2021/06/21 07:31:30;;;;;;;7.15;4.97;;;691.90;2432.00;;;;;;5065455;28;20613;-74
2021/06/21 07:33:56;;;;;;;5.90;5.30;;;716.80;2432.00;;;;;;5067690;28;20095;-76
2021/06/21 07:36:22;;;;;;;7.55;5.10;;;716.80;2432.00;;;;;;5065840;28;20064;-75
2021/06/21 07:38:48;;;;;;;5.18;4.68;;;716.90;2432.00;;;;;;5066209;28;20025;-80
2021/06/21 07:41:16;;;;;;;7.07;5.30;;;717.00;2432.00;;;;;;5067570;28;20162;-76
2021/06/21 07:43:42;;;;;;;6.97;4.90;;;717.10;2432.00;;;;;;5063790;28;20028;-75
2021/06/21 07:46:08;;;;;;;6.88;4.47;;;717.40;2432.00;;;;;;5061973;28;20099;-76
2021/06/21 07:48:35;;;;;;;8.05;4.75;;;717.40;2432.00;;;;;;5064967;28;20111;-73
2021/06/21 07:51:02;;;;;;;6.80;4.60;;;717.70;2432.00;;;;;;5066475;28;20047;-76
2021/06/21 07:53:29;;;;;;;6.20;4.65;;;717.70;2432.00;;;;;;5063520;28;20032;-75
2021/06/21 07:55:54;;;;;;;5.65;4.88;;;717.00;2432.00;;;;;;5047157;28;20035;-79
2021/06/21 07:58:20;;;;;;;6.47;4.35;;;717.10;2432.00;;;;;;5062662;28;20020;-72
2021/06/21 08:00:46;;;;;;;8.75;4.97;;;717.20;2432.00;;;;;;5071936;28;20024;-72
2021/06/21 08:03:12;;;;;;;5.00;4.30;;;717.20;2432.00;;;;;;5073628;28;20021;-77
2021/06/21 08:05:39;;;;;;;5.30;4.50;;;717.50;2432.00;;;;;;5074268;28;20035;-79
2021/06/21 08:08:07;;;;;;;6.93;5.05;;;742.40;2432.00;;;;;;5074511;28;20406;-76
2021/06/21 08:10:34;;;;;;;5.65;4.53;;;742.60;2432.00;;;;;;5074761;28;20053;-82
2021/06/21 08:13:00;;;;;;;5.63;4.50;;;743.00;2432.00;;;;;;5056394;28;20021;-77
2021/06/21 08:15:26;;;;;;;5.85;4.45;;;743.30;2432.00;;;;;;5074965;28;20026;-75
2021/06/21 08:17:52;;;;;;;5.22;4.40;;;;;;;;;;5075257;28;20095;-83
2021/06/21 08:20:18;;;;;;;4.90;4.30;;;743.20;2432.00;;;;;;5074637;28;20021;-83
2021/06/21 08:22:44;;;;;;;6.13;4.22;;;768.90;2432.00;;;;;;5074936;28;20149;-82
2021/06/21 08:25:10;;;;;;;5.97;4.60;;;794.00;2432.00;;;;;;5072995;28;20082;-77
2021/06/21 08:27:36;;;;;;;4.90;3.95;;;768.80;2432.00;;;;;;5074748;28;20086;-78
2021/06/21 08:30:05;;;;;;;7.43;4.30;;;793.70;2432.00;;;;;;5056718;28;20020;-76
2021/06/21 08:32:31;;;;;;;7.63;5.05;;;793.90;2432.00;;;;;;5074752;28;20025;-77
2021/06/21 08:34:57;;;;;;;10.43;4.50;;;819.60;2432.00;;;;;;5074713;28;20032;-80
2021/06/21 08:37:24;;;;;;;6.28;4.03;;;819.80;2432.00;;;;;;5074495;28;20025;-73
2021/06/21 08:39:50;;;;;;;5.65;3.90;;;819.40;2432.00;;;;;;5074931;28;20036;-72
2021/06/21 08:42:17;;;;;;;5.30;3.95;;;794.30;2432.00;;;;;;5074482;28;20033;-72
2021/06/21 08:44:43;;;;;;;4.53;3.90;;;794.20;2432.00;;;;;;5073366;28;20073;-80
2021/06/21 08:47:12;;;;;;;7.80;4.00;;;794.00;2432.00;;;;;;5073658;28;20016;-76
2021/06/21 08:49:45;;;;;;;4.65;3.90;;;794.30;2432.00;;;;;;5074632;28;20027;-71
2021/06/21 08:52:12;;;;;;;7.75;4.32;;;794.50;2432.00;;;;;;5074280;28;20107;-75
2021/06/21 08:54:38;;;;;;;5.35;3.70;;;819.60;2432.00;;;;;;5074270;28;20017;-72
2021/06/21 08:57:05;;;;;;;4.55;3.67;;;819.90;2432.00;;;;;;5074222;28;20024;-70
2021/06/21 08:59:30;;;;;;;4.53;3.67;;;819.40;2432.00;;;;;;5074036;28;20056;-76
2021/06/21 09:01:56;;;;;;;4.85;3.63;;;819.60;2432.00;;;;;;5074127;28;20068;-72
2021/06/21 09:04:24;;;;;;;5.30;4.15;;;794.50;2432.00;;;;;;5071991;28;20012;-71
2021/06/21 09:06:50;;;;;;;5.15;3.40;;;819.20;2432.00;;;;;;5074037;28;20055;-71
2021/06/21 09:09:16;;;;;;;4.25;3.28;;;819.50;2432.00;;;;;;5072384;28;20466;-68
2021/06/21 09:11:49;;;;;;;4.85;3.28;;;819.30;2432.00;;;;;;5061473;28;20046;-75
2021/06/21 09:14:29;;;;;;;6.68;3.47;;;819.40;2432.00;;;;;;5073655;28;20390;-72
2021/06/21 09:17:08;;;;;;;5.43;3.35;;;819.70;2432.00;;;;;;5073780;28;20024;-72
2021/06/21 09:20:03;;;;;;;4.10;3.33;;;;;;;;;;5074132;28;20099;-73
2021/06/21 09:22:38;;;;;;;6.30;3.50;;;844.80;2432.00;;;;;;5050416;28;20078;-74
2021/06/21 09:25:16;;;;;;;4.47;3.30;;;845.20;2432.00;;;;;;5073547;28;20566;-72
2021/06/21 09:27:52;;;;;;;4.70;3.63;;;844.90;2432.00;;;;;;5073594;28;20440;-70
2021/06/21 09:30:18;;;;;;;6.90;3.90;;;819.40;2432.00;;;;;;5073345;28;20021;-75
2021/06/21 09:32:46;;;;;;;5.05;3.53;;;819.60;2432.00;;;;;;5073582;28;20028;-75
2021/06/21 09:35:32;;;;;;;7.00;3.80;;;820.00;2432.00;;;;;;5073294;28;20012;-72
2021/06/21 09:37:59;;;;;;;6.90;3.70;;;819.80;2432.00;;;;;;5073132;28;20375;-72
2021/06/21 09:40:28;;;;;;;5.85;3.70;;;820.10;2432.00;;;;;;5073100;28;20056;-72
2021/06/21 09:42:54;;;;;;;6.28;3.80;;;819.30;2432.00;;;;;;5073166;28;20035;-72
2021/06/21 09:45:20;;;;;;;4.82;3.20;;;819.60;2432.00;;;;;;5073089;28;20020;-74
2021/06/21 09:47:46;;;;;;;3.50;3.00;;;819.60;2432.00;;;;;;5072870;28;20544;-73
2021/06/21 09:50:26;;;;;;;4.55;3.20;;;819.60;2432.00;;;;;;5073085;28;20028;-78
2021/06/21 09:53:02;;;;;;;5.53;3.08;;;819.80;2432.00;;;;;;5073265;28;20035;-78
2021/06/21 09:55:38;;;;;;;4.15;3.10;;;844.90;2432.00;;;;;;5073228;28;20044;-70
2021/06/21 09:58:13;;;;;;;6.97;3.50;;;844.80;2432.00;;;;;;5065017;28;20024;-71
2021/06/21 10:00:45;;;;;;;4.65;3.10;;;845.20;2432.00;;;;;;5072561;28;20070;-75
2021/06/21 10:03:24;;;;;;;4.32;3.05;;;845.20;2406.40;;;;;;5072860;28;20024;-71
2021/06/21 10:06:10;;;;;;;4.57;3.10;;;820.10;2406.40;;;;;;5072871;28;20131;-74
2021/06/21 10:08:43;;;;;;;5.90;3.38;;;844.80;2406.40;;;;;;5072942;28;20036;-72
2021/06/21 10:11:34;;;;;;;4.88;3.30;;;845.30;2406.40;;;;;;5059045;28;20128;-77
2021/06/21 10:14:02;;;;;;;4.78;3.30;;;;;;;;;;5061404;28;20086;-76
2021/06/21 10:16:28;;;;;;;4.72;3.30;;;845.60;2380.80;;;;;;5072550;28;20098;-73
2021/06/21 10:18:55;;;;;;;5.57;3.70;;;870.80;2278.40;;;;;;5072710;28;20024;-76
2021/06/21 10:21:22;;;;;;;4.93;3.30;;;845.70;2252.80;;;;;;5072524;28;20036;-72
2021/06/21 10:23:48;;;;;;;4.28;3.00;;;845.50;2252.80;;;;;;5072411;28;20032;-77
2021/06/21 10:26:15;;;;;;;4.25;3.20;;;870.60;2201.60;;;;;;5072399;28;20098;-73
2021/06/21 10:28:41;;;;;;;5.55;3.65;;;870.60;2048.00;;;;;;5070389;28;20025;-75
2021/06/21 10:31:07;;;;;;;5.57;3.75;;;870.50;2073.60;;;;;;5072220;28;20418;-72
2021/06/21 10:33:34;;;;;;;6.28;3.72;;;870.70;2150.40;;;;;;5069967;28;20446;-77
2021/06/21 10:36:03;;;;;;;4.75;4.18;;;870.50;2099.20;;;;;;5065707;28;20036;-71
2021/06/21 10:38:29;;;;;;;4.40;3.58;;;871.00;1996.80;;;;;;5072451;28;20028;-76
2021/06/21 10:41:06;;;;;;;4.35;3.40;;;870.80;2073.60;;;;;;5070337;28;20034;-72
2021/06/21 10:43:44;;;;;;;5.57;3.80;;;870.70;2099.20;;;;;;5071722;28;20024;-71
2021/06/21 10:46:25;;;;;;;4.13;3.53;;;870.90;2048.00;;;;;;5071225;28;20016;-71
2021/06/21 10:48:57;;;;;;;5.03;3.50;;;871.30;2073.60;;;;;;5069746;28;20547;-77
2021/06/21 10:51:40;;;;;;;6.60;3.58;;;871.30;2022.40;;;;;;5071700;28;20024;-74
2021/06/21 10:54:07;;;;;;;4.53;3.45;;;871.20;1996.80;;;;;;5069844;28;20024;-79
2021/06/21 10:56:45;;;;;;;4.65;3.55;;;871.30;1996.80;;;;;;5071234;28;20035;-71
2021/06/21 10:59:24;;;;;;;7.90;3.60;;;896.60;1971.20;;;;;;5066293;28;20025;-72
2021/06/21 11:01:55;;;;;;;5.95;3.60;;;896.80;1996.80;;;;;;5070091;28;20375;-73
2021/06/21 11:04:36;;;;;;;3.88;3.25;;;896.90;1996.80;;;;;;5070851;28;20423;-70
2021/06/21 11:07:10;;;;;;;6.57;3.70;;;896.60;1996.80;;;;;;5069939;28;20028;-78
2021/06/21 11:09:47;;;;;;;6.45;3.20;;;921.60;1996.80;;;;;;5070864;28;20024;-73
2021/06/21 11:12:21;;;;;;;5.07;3.60;;;921.90;1971.20;;;;;;5071665;28;20490;-76
2021/06/21 11:15:09;;;;;;;6.80;3.65;;;921.60;1945.60;;;;;;5071267;28;20507;-77
2021/06/21 11:17:57;;;;;;;5.78;3.63;;;896.90;1945.60;;;;;;5071412;28;20036;-71
2021/06/21 11:20:34;;;;;;;5.18;3.50;;;896.80;1945.60;;;;;;5071999;28;20024;-76
2021/06/21 11:23:06;;;;;;;4.95;3.70;;;921.60;1920.00;;;;;;5073127;28;20486;-82
2021/06/21 11:25:47;;;;;;;6.13;3.67;;;896.90;1894.40;;;;;;5074780;28;20040;-72
2021/06/21 11:28:35;;;;;;;5.07;3.45;;;921.60;1971.20;;;;;;5074764;28;20029;-80
2021/06/21 11:31:19;;;;;;;6.05;3.60;;;896.00;1920.00;;;;;;5074228;28;20020;-71
2021/06/21 11:33:56;;;;;;;5.38;3.88;;;870.70;1971.20;;;;;;5075319;28;20621;-75
2021/06/21 11:36:39;;;;;;;5.95;3.72;;;871.20;1996.80;;;;;;5076047;28;20027;-78
2021/06/21 11:39:23;;;;;;;5.47;3.58;;;896.00;1894.40;;;;;;5075394;28;20024;-78
2021/06/21 11:42:00;;;;;;;6.88;3.42;;;871.20;1920.00;;;;;;5075242;28;20028;-74
2021/06/21 11:44:40;;;;;;;4.68;3.28;;;871.20;1920.00;;;;;;5073796;28;20391;-71
2021/06/21 11:47:35;;;;;;;5.20;3.92;;;871.30;1894.40;;;;;;5071685;28;20497;-74
2021/06/21 11:50:16;;;;;;;6.00;3.80;;;871.30;1894.40;;;;;;5066721;28;20401;-72
2021/06/21 11:52:45;;;;;;;5.75;3.85;;;870.80;1945.60;;;;;;5074902;28;20111;-76
2021/06/21 11:55:17;;;;;;;5.68;3.78;;;870.70;1945.60;;;;;;5074183;28;20027;-75
2021/06/21 11:57:45;;;;;;;5.88;3.85;;;870.70;1920.00;;;;;;5074354;28;20145;-74
2021/06/21 12:00:11;;;;;;;7.75;3.63;;;870.70;1894.40;;;;;;5056806;28;20107;-76
2021/06/21 12:02:37;;;;;;;5.25;3.45;;;870.70;1920.00;;;;;;5074084;28;20032;-71
2021/06/21 12:05:09;;;;;;;5.82;3.70;;;870.60;1920.00;;;;;;5073263;28;20131;-72
2021/06/21 12:07:36;;;;;;;7.90;3.63;;;870.70;1894.40;;;;;;5066612;28;20453;-72
2021/06/21 12:10:07;;;;;;;6.10;3.70;;;870.70;1920.00;;;;;;5068061;28;20522;-81
2021/06/21 12:12:37;;;;;;;6.75;3.92;;;845.60;1945.60;;;;;;5056886;28;20098;-80
2021/06/21 12:15:06;;;;;;;4.72;3.72;;;870.50;1971.20;;;;;;5074655;28;20027;-77
2021/06/21 12:17:32;;;;;;;5.53;3.50;;;845.30;1945.60;;;;;;5074805;28;20020;-76
2021/06/21 12:20:17;;;;;;;5.38;3.70;;;845.70;1971.20;;;;;;5074639;28;20104;-81
2021/06/21 12:23:07;;;;;;;4.88;3.65;;;870.50;1920.00;;;;;;5075010;28;20024;-77
2021/06/21 12:25:35;;;;;;;5.95;4.00;;;870.50;1945.60;;;;;;5074037;28;20051;-75
2021/06/21 12:28:18;;;;;;;5.32;3.90;;;870.50;1945.60;;;;;;5065938;28;20106;-75
2021/06/21 12:30:51;;;;;;;5.18;3.80;;;870.50;1945.60;;;;;;5063481;28;20021;-71